Syracuse, NY (13201)

10:54 AM EDT on September 04, 2015 (GMT -0400)
MoST* - Armory Square | | Change Station
CLOSE
Current Station
Personal Weather Station
Location: Syracuse, NY
Elevation: 400 ft
Nearby Weather Stations

Elev 400 ft 43.05 °N, 76.16 °W | Updated 4 minutes ago

Partly Cloudy
Partly Cloudy
79.5 °F
Feels Like 80 °F
N
2.0
Wind Variable Wind from NW
Gusts 7.0 mph

Today
High -- | Low -- °F
--% Chance of Precip.
Yesterday
High -- | Low -- °F
Precip. -- in
6:31 AM 7:34 PM
Waning Gibbous, 59% visible
Pressure 30.09 in
Visibility 10.0 miles
Clouds Scattered Clouds 25000 ft
Heat Index 80 °F
Dew Point 59 °F
Humidity 49%
Rainfall 0.00 in
Snow Depth Not available.
UV 4.9 out of 12
Pollen 9.50 out of 12
Air Quality Not available.
Flu Activity Not available.
METAR KSYR 041354Z 08006KT 10SM SCT250 23/17 A3010 RMK AO2 SLP189 T02280172
Pressure 30.09 in
Visibility 10.0 miles
Clouds Scattered Clouds 25000 ft
Heat Index 80 °F
Dew Point 59 °F
Humidity 49%
Rainfall 0.00 in
Snow Depth Not available.
UV 4.9 out of 12
Pollen 9.50 out of 12
Air Quality Not available.
Flu Activity Not available.
METAR KSYR 041354Z 08006KT 10SM SCT250 23/17 A3010 RMK AO2 SLP189 T02280172

10-Day Weather Forecast

×

Almanac

Astronomy

Sep. 04, 2015 Rise Set
Actual Time
Civil Twilight
Nautical Twilight
Astronomical Twilight
Moon
Length of Visible Light
Length of Day
Tomorrow will be .
, % of the Moon is Illuminated

Today's Extremes

State Highs State Lows

Community

WunderPhotos

Upload Photos

1,852,187 photos uploaded!

WunderBlogs® & News

Nearby

Air Quality

  Air Quality AQ Index Pollutant
Not available.

Snow Depth

Station Depth Elevation

Earthquake Activity

City Distance Mag. Time & Date
Minimum magnitude displayed is 2.5.

Coastal Water Temperatures

Place Temperature

Stations

Nearby Weather Stations

Station Location Temp. Windchill Dew Point Humidity Wind Precip. Elev Updated Type